Time;durP1;ratioP1;P1;durP2;ratioP2;P2;SDS_P1;SDS_P2;PMS_P1;PMS_P2;Temp;Humidity;BMP_temperature;BMP_pressure;BME280_temperature;BME280_humidity;BME280_pressure;Samples;Min_cycle;Max_cycle;Signal;HPM_P1;HPM_P2
2023/10/29 00:04:36;;;;;;;2.37;1.77;;;15.10;36.50;;;;;;10396681;28;20234;-72
2023/10/29 00:09:39;;;;;;;2.60;1.50;;;15.10;36.70;;;;;;10397540;28;20677;-73
2023/10/29 00:14:44;;;;;;;1.87;1.23;;;15.10;36.80;;;;;;10395581;28;20226;-72
2023/10/29 00:19:50;;;;;;;1.73;1.30;;;15.00;36.50;;;;;;10394224;28;20226;-72
2023/10/29 00:24:53;;;;;;;1.33;1.20;;;15.00;36.40;;;;;;10385110;28;20234;-72
2023/10/29 00:29:58;;;;;;;2.30;1.30;;;15.00;36.60;;;;;;10387860;28;20273;-72
2023/10/29 00:35:01;;;;;;;1.77;1.20;;;15.00;36.60;;;;;;10395604;28;20229;-72
2023/10/29 00:40:06;;;;;;;2.13;1.40;;;15.10;36.50;;;;;;10394709;28;20228;-72
2023/10/29 00:45:11;;;;;;;1.80;1.10;;;15.00;36.30;;;;;;10396518;28;20240;-71
2023/10/29 00:50:14;;;;;;;3.70;1.20;;;15.00;36.40;;;;;;10393822;28;20208;-71
2023/10/29 00:55:18;;;;;;;1.37;1.27;;;14.90;36.60;;;;;;10395225;28;20225;-71
2023/10/29 01:00:23;;;;;;;1.73;1.20;;;14.90;36.70;;;;;;10393926;28;20261;-71
2023/10/29 01:05:26;;;;;;;1.80;1.20;;;14.90;36.80;;;;;;10391217;28;20233;-71
2023/10/29 01:10:30;;;;;;;1.40;1.23;;;14.90;36.80;;;;;;10390013;28;20323;-71
2023/10/29 01:15:35;;;;;;;1.20;1.10;;;14.90;36.80;;;;;;10390087;28;20226;-71
2023/10/29 01:20:38;;;;;;;1.30;1.20;;;14.90;36.80;;;;;;10392412;28;20237;-71
2023/10/29 01:25:43;;;;;;;1.33;1.10;;;14.90;36.70;;;;;;10389399;28;20226;-71
2023/10/29 01:30:48;;;;;;;2.07;1.43;;;14.90;36.80;;;;;;10392136;28;20228;-71
2023/10/29 01:35:51;;;;;;;1.73;1.20;;;14.90;36.90;;;;;;10391771;28;20226;-71
2023/10/29 01:40:54;;;;;;;1.97;1.20;;;14.90;37.00;;;;;;10390886;28;20236;-70
2023/10/29 01:45:58;;;;;;;1.27;1.13;;;14.90;36.90;;;;;;10391910;28;20785;-70
2023/10/29 01:51:06;;;;;;;2.20;1.30;;;14.90;37.10;;;;;;10389948;28;20225;-72
2023/10/29 01:56:09;;;;;;;2.73;1.30;;;15.00;36.80;;;;;;10391678;28;20272;-71
2023/10/29 02:01:14;;;;;;;1.30;1.10;;;14.90;36.80;;;;;;10400129;28;21047;-70
2023/10/29 02:06:18;;;;;;;1.57;1.30;;;14.80;36.90;;;;;;10398360;28;20244;-71
2023/10/29 02:11:21;;;;;;;2.03;1.30;;;14.80;36.90;;;;;;10398766;28;20779;-71
2023/10/29 02:16:25;;;;;;;1.93;1.20;;;14.70;37.00;;;;;;10398785;28;20597;-70
2023/10/29 02:21:28;;;;;;;1.07;1.00;;;14.70;37.20;;;;;;10398484;28;20232;-70
2023/10/29 02:26:33;;;;;;;1.83;1.20;;;14.70;37.00;;;;;;10399217;28;20244;-71
2023/10/29 02:31:36;;;;;;;1.30;1.20;;;14.60;36.90;;;;;;10395327;28;20240;-70
2023/10/29 02:36:39;;;;;;;1.30;1.20;;;14.50;37.00;;;;;;10398469;28;20237;-70
2023/10/29 02:41:44;;;;;;;1.73;1.50;;;14.40;37.00;;;;;;10398469;28;20243;-70
2023/10/29 02:46:48;;;;;;;1.40;1.30;;;14.30;37.20;;;;;;10397844;28;20226;-70
2023/10/29 02:51:51;;;;;;;1.20;1.20;;;14.30;37.20;;;;;;10396373;28;20238;-71
2023/10/29 02:56:55;;;;;;;1.57;1.20;;;14.30;37.50;;;;;;10396409;28;20229;-70
2023/10/29 03:01:59;;;;;;;1.63;1.40;;;14.20;37.50;;;;;;10395482;28;20627;-71
2023/10/29 03:07:02;;;;;;;1.80;1.37;;;14.20;37.50;;;;;;10397320;28;20603;-71
2023/10/29 03:12:07;;;;;;;1.50;1.30;;;14.20;37.50;;;;;;10395324;28;20315;-70
2023/10/29 03:17:11;;;;;;;1.20;1.10;;;14.10;37.60;;;;;;10392557;28;20599;-72
2023/10/29 03:22:14;;;;;;;1.57;1.47;;;14.20;37.70;;;;;;10391412;28;20316;-72
2023/10/29 03:27:18;;;;;;;1.47;1.37;;;14.20;37.70;;;;;;10391139;28;20240;-72
2023/10/29 03:32:22;;;;;;;1.40;1.30;;;14.20;37.60;;;;;;10396683;28;20602;-72
2023/10/29 03:37:26;;;;;;;1.40;1.30;;;14.20;37.60;;;;;;10394596;28;20233;-72
2023/10/29 03:42:30;;;;;;;1.33;1.20;;;14.20;37.60;;;;;;10395744;28;20247;-70
2023/10/29 03:47:33;;;;;;;1.40;1.30;;;14.30;37.70;;;;;;10391490;28;20222;-72
2023/10/29 03:52:36;;;;;;;1.40;1.30;;;14.30;37.40;;;;;;10398476;28;20257;-72
2023/10/29 03:57:42;;;;;;;1.60;1.23;;;14.20;37.10;;;;;;10395027;28;20856;-72
2023/10/29 04:02:45;;;;;;;1.47;1.37;;;14.10;37.50;;;;;;10394730;28;20720;-72
2023/10/29 04:07:48;;;;;;;1.50;1.40;;;14.10;37.50;;;;;;10397619;28;20252;-75
2023/10/29 04:12:53;;;;;;;1.27;1.23;;;14.00;37.40;;;;;;10393059;28;20656;-72
2023/10/29 04:17:56;;;;;;;1.67;1.20;;;14.00;37.40;;;;;;10390862;28;20229;-72
2023/10/29 04:22:59;;;;;;;1.27;1.20;;;13.90;37.30;;;;;;10392450;28;20234;-70
2023/10/29 04:28:04;;;;;;;1.10;1.10;;;13.90;37.30;;;;;;10382117;28;20341;-71
2023/10/29 04:33:07;;;;;;;1.60;1.30;;;13.90;37.30;;;;;;10389751;28;20225;-70
2023/10/29 04:38:11;;;;;;;2.73;2.07;;;13.90;37.30;;;;;;10396573;28;20225;-70
2023/10/29 04:43:16;;;;;;;1.70;1.60;;;13.80;37.20;;;;;;10397104;28;20264;-75
2023/10/29 04:48:19;;;;;;;1.77;1.40;;;13.70;37.30;;;;;;10394827;28;20230;-75
2023/10/29 04:53:22;;;;;;;2.63;1.47;;;13.70;37.20;;;;;;10390338;28;20312;-75
2023/10/29 04:58:27;;;;;;;1.70;1.60;;;13.50;37.30;;;;;;10389787;28;20226;-72
2023/10/29 05:03:30;;;;;;;1.53;1.40;;;13.50;37.70;;;;;;10395123;28;20255;-72
2023/10/29 05:08:33;;;;;;;1.57;1.40;;;13.50;37.60;;;;;;10394887;28;20221;-70
2023/10/29 05:13:38;;;;;;;1.50;1.40;;;13.50;37.50;;;;;;10396849;28;20228;-70
2023/10/29 05:18:41;;;;;;;1.50;1.40;;;13.50;37.50;;;;;;10386189;28;20233;-70
2023/10/29 05:23:45;;;;;;;1.40;1.30;;;13.50;37.40;;;;;;10391078;28;21052;-70
2023/10/29 05:28:49;;;;;;;1.30;1.20;;;13.40;37.10;;;;;;10392101;28;20253;-70
2023/10/29 05:33:53;;;;;;;1.40;1.30;;;13.40;37.10;;;;;;10391869;28;20226;-72
2023/10/29 05:38:57;;;;;;;1.40;1.30;;;13.30;36.80;;;;;;10391678;28;20229;-70
2023/10/29 05:44:02;;;;;;;1.10;1.10;;;13.10;36.80;;;;;;10392056;28;20291;-70
2023/10/29 05:49:05;;;;;;;1.23;1.17;;;13.00;37.20;;;;;;10390111;28;20225;-71
2023/10/29 05:54:09;;;;;;;2.00;1.40;;;12.90;37.20;;;;;;10393633;28;20241;-71
2023/10/29 05:59:13;;;;;;;1.70;1.60;;;12.90;37.30;;;;;;10389564;28;20241;-71
2023/10/29 06:04:16;;;;;;;1.70;1.53;;;12.80;37.30;;;;;;10391611;28;20455;-70
2023/10/29 06:09:20;;;;;;;2.30;1.47;;;12.80;37.30;;;;;;10390801;28;20303;-70
2023/10/29 06:14:28;;;;;;;1.70;1.60;;;12.80;37.30;;;;;;10392128;28;20984;-71
2023/10/29 06:19:33;;;;;;;1.60;1.50;;;12.70;37.40;;;;;;10393380;28;20230;-74
2023/10/29 06:24:36;;;;;;;3.57;1.90;;;12.70;37.50;;;;;;10390050;28;20814;-75
2023/10/29 06:29:41;;;;;;;2.00;1.73;;;12.70;37.30;;;;;;10385233;28;20248;-75
2023/10/29 06:34:44;;;;;;;1.90;1.70;;;12.60;37.40;;;;;;10386204;28;20309;-74
2023/10/29 06:39:48;;;;;;;2.03;1.93;;;12.60;37.30;;;;;;10390069;28;20234;-74
2023/10/29 06:44:52;;;;;;;2.50;2.30;;;12.50;37.30;;;;;;10394259;28;20248;-74
2023/10/29 06:49:56;;;;;;;2.50;2.27;;;12.40;37.50;;;;;;10390321;28;20230;-74
2023/10/29 06:54:59;;;;;;;1.80;1.70;;;12.40;37.60;;;;;;10393198;28;20833;-74
2023/10/29 07:00:04;;;;;;;1.70;1.60;;;12.30;37.90;;;;;;10396335;28;20611;-74
2023/10/29 07:05:08;;;;;;;1.63;1.50;;;12.40;38.30;;;;;;10391548;28;20786;-74
2023/10/29 07:10:12;;;;;;;1.80;1.70;;;12.40;38.10;;;;;;10390716;28;20234;-70
2023/10/29 07:15:16;;;;;;;1.50;1.40;;;12.40;38.20;;;;;;10393267;28;20656;-70
2023/10/29 07:20:20;;;;;;;1.50;1.40;;;12.40;38.50;;;;;;10390564;28;20288;-70
2023/10/29 07:25:24;;;;;;;1.73;1.60;;;12.40;38.60;;;;;;10392221;28;20240;-74
2023/10/29 07:30:28;;;;;;;1.60;1.50;;;12.50;38.90;;;;;;10389477;28;20229;-70
2023/10/29 07:35:32;;;;;;;1.93;1.30;;;12.50;39.40;;;;;;10393518;28;20234;-71
2023/10/29 07:40:36;;;;;;;1.90;1.80;;;12.60;39.40;;;;;;10391266;28;20598;-72
2023/10/29 07:45:41;;;;;;;2.77;2.17;;;12.70;39.60;;;;;;10391645;28;20320;-71
2023/10/29 07:50:50;;;;;;;2.20;2.00;;;12.90;39.80;;;;;;10399098;28;20226;-72
2023/10/29 07:55:53;;;;;;;2.50;1.90;;;13.00;40.40;;;;;;10396180;28;20279;-71
2023/10/29 08:00:58;;;;;;;2.07;1.97;;;13.20;40.00;;;;;;10392269;28;20229;-71
2023/10/29 08:06:02;;;;;;;2.63;1.87;;;13.50;40.50;;;;;;10389790;28;20226;-71
2023/10/29 08:11:06;;;;;;;2.30;1.90;;;13.70;40.60;;;;;;10391067;28;20225;-71
2023/10/29 08:16:12;;;;;;;1.70;1.60;;;14.00;40.80;;;;;;10383864;28;20284;-71
2023/10/29 08:21:17;;;;;;;1.90;1.80;;;14.30;40.60;;;;;;10389762;28;20783;-71
2023/10/29 08:26:23;;;;;;;2.00;1.90;;;14.60;40.60;;;;;;10388445;28;20264;-71
2023/10/29 08:31:27;;;;;;;2.70;2.03;;;14.90;41.00;;;;;;10390554;28;20237;-71
2023/10/29 08:36:31;;;;;;;1.60;1.50;;;15.20;40.20;;;;;;10391958;28;20221;-71
2023/10/29 08:41:34;;;;;;;1.50;1.40;;;15.50;39.50;;;;;;10390820;28;20583;-71
2023/10/29 08:46:39;;;;;;;2.67;1.37;;;15.80;39.50;;;;;;10391309;28;20235;-74
2023/10/29 08:51:43;;;;;;;1.50;1.40;;;16.10;38.30;;;;;;10391334;28;20230;-74
2023/10/29 08:56:46;;;;;;;2.20;2.00;;;16.20;38.80;;;;;;10386829;28;20284;-74
2023/10/29 09:01:53;;;;;;;3.03;2.17;;;16.40;38.70;;;;;;10393097;28;20307;-74
2023/10/29 09:06:56;;;;;;;1.60;1.50;;;16.60;38.50;;;;;;10390265;28;20226;-74
2023/10/29 09:11:59;;;;;;;2.20;2.00;;;16.70;38.40;;;;;;10393255;28;20230;-74
2023/10/29 09:17:04;;;;;;;1.60;1.50;;;17.00;38.60;;;;;;10389102;28;20229;-69
2023/10/29 09:22:08;;;;;;;1.50;1.40;;;17.20;37.80;;;;;;10387901;28;20372;-69
2023/10/29 09:27:11;;;;;;;2.17;1.57;;;17.40;37.70;;;;;;10388687;28;20960;-68
2023/10/29 09:32:16;;;;;;;2.13;1.60;;;17.60;37.60;;;;;;10391413;28;20233;-71
2023/10/29 09:37:20;;;;;;;1.40;1.30;;;17.80;36.90;;;;;;10395017;28;20731;-71
2023/10/29 09:42:29;;;;;;;1.20;1.10;;;17.90;36.80;;;;;;10391363;28;20715;-71
2023/10/29 09:47:37;;;;;;;1.53;1.23;;;18.10;36.10;;;;;;10390158;28;20226;-69
2023/10/29 09:52:42;;;;;;;1.30;1.20;;;18.20;35.30;;;;;;10389921;28;20234;-68
2023/10/29 09:57:45;;;;;;;1.70;1.30;;;18.40;36.50;;;;;;10392246;28;20225;-70
2023/10/29 10:02:55;;;;;;;1.70;1.60;;;18.50;36.60;;;;;;10393214;28;20222;-70
2023/10/29 10:07:59;;;;;;;1.00;1.00;;;18.70;35.40;;;;;;10391666;28;20229;-70
2023/10/29 10:13:04;;;;;;;2.27;1.50;;;18.80;35.50;;;;;;10390934;28;20228;-71
2023/10/29 10:18:09;;;;;;;1.63;1.40;;;19.00;35.60;;;;;;10392099;28;20265;-70
2023/10/29 10:23:14;;;;;;;1.20;1.10;;;19.10;35.50;;;;;;10397217;28;20603;-70
2023/10/29 10:28:17;;;;;;;1.20;1.10;;;19.20;35.80;;;;;;10397454;28;20257;-70
2023/10/29 10:33:22;;;;;;;1.23;1.13;;;19.30;35.90;;;;;;10397548;28;20241;-74
2023/10/29 10:38:25;;;;;;;1.20;1.10;;;19.40;34.70;;;;;;10395561;28;20253;-74
2023/10/29 10:43:28;;;;;;;2.37;1.20;;;19.50;35.30;;;;;;10398616;28;20236;-75
2023/10/29 10:48:36;;;;;;;0.90;0.90;;;19.60;35.20;;;;;;10392030;28;21043;-75
2023/10/29 10:53:41;;;;;;;1.87;1.00;;;19.70;34.30;;;;;;10397595;28;20299;-74
2023/10/29 10:58:46;;;;;;;1.20;1.10;;;19.80;34.50;;;;;;10393075;28;20233;-74
2023/10/29 11:03:51;;;;;;;3.00;1.43;;;19.90;34.60;;;;;;10397948;28;20232;-69
2023/10/29 11:08:55;;;;;;;1.47;1.20;;;19.90;33.90;;;;;;10389570;28;20711;-69
2023/10/29 11:14:11;;;;;;;1.30;1.27;;;20.00;34.40;;;;;;10397492;28;20222;-69
2023/10/29 11:19:42;;;;;;;1.33;1.13;;;20.10;32.90;;;;;;10396755;28;20725;-69
2023/10/29 11:25:07;;;;;;;2.07;1.10;;;20.20;33.00;;;;;;10393480;28;20279;-69
2023/10/29 11:30:12;;;;;;;1.50;1.07;;;20.20;34.30;;;;;;10392259;28;20221;-69
2023/10/29 11:35:21;;;;;;;1.93;1.20;;;20.30;34.00;;;;;;10392832;28;20229;-69
2023/10/29 11:40:33;;;;;;;1.47;1.30;;;20.40;32.90;;;;;;10398318;28;20667;-69
2023/10/29 11:45:38;;;;;;;1.00;1.00;;;20.40;32.90;;;;;;10398243;28;20320;-69
2023/10/29 11:51:03;;;;;;;1.53;1.07;;;20.40;33.70;;;;;;10387909;28;20254;-69
2023/10/29 11:56:10;;;;;;;1.37;1.10;;;20.50;33.30;;;;;;10396850;28;20235;-69
2023/10/29 12:01:21;;;;;;;1.30;1.20;;;20.50;34.00;;;;;;10397553;28;20230;-69
2023/10/29 12:06:41;;;;;;;1.47;1.37;;;20.60;33.80;;;;;;10398215;28;20234;-69
2023/10/29 12:11:48;;;;;;;1.70;1.30;;;20.50;33.40;;;;;;10392762;28;20231;-69
2023/10/29 12:16:52;;;;;;;1.30;1.20;;;20.30;33.90;;;;;;10394916;28;20213;-69
2023/10/29 12:21:57;;;;;;;2.90;1.40;;;20.30;34.20;;;;;;10394686;28;20233;-69
2023/10/29 12:27:02;;;;;;;1.50;1.40;;;20.20;34.50;;;;;;10397362;28;20213;-69
2023/10/29 12:32:06;;;;;;;1.80;1.37;;;20.20;34.10;;;;;;10392369;28;20859;-69
2023/10/29 12:37:09;;;;;;;1.87;1.20;;;20.20;34.60;;;;;;10392979;28;20222;-69
2023/10/29 12:42:14;;;;;;;1.40;1.20;;;20.20;34.70;;;;;;10393503;28;20237;-69
2023/10/29 12:47:17;;;;;;;1.33;1.10;;;20.20;34.60;;;;;;10391144;28;20266;-69
2023/10/29 12:52:20;;;;;;;1.33;1.23;;;20.20;34.60;;;;;;10393744;28;20230;-69
2023/10/29 12:57:25;;;;;;;1.43;1.30;;;20.30;34.80;;;;;;10388138;28;20221;-69
2023/10/29 13:02:28;;;;;;;1.47;1.37;;;20.30;34.60;;;;;;10394829;28;20708;-69
2023/10/29 13:07:32;;;;;;;1.10;1.10;;;20.30;34.70;;;;;;10395289;28;20232;-69
2023/10/29 13:12:36;;;;;;;2.27;1.37;;;20.30;34.60;;;;;;10396415;28;20237;-69
2023/10/29 13:17:40;;;;;;;1.20;1.10;;;20.40;34.30;;;;;;10387359;28;20225;-69
2023/10/29 13:22:43;;;;;;;1.40;1.30;;;20.40;34.40;;;;;;10393760;28;20283;-69
2023/10/29 13:27:49;;;;;;;1.10;1.10;;;20.50;34.20;;;;;;10392319;28;20603;-69
2023/10/29 13:32:52;;;;;;;1.27;1.17;;;20.50;34.20;;;;;;10393936;28;20757;-69
2023/10/29 13:37:56;;;;;;;1.13;1.03;;;20.60;34.20;;;;;;10393725;28;20316;-69
2023/10/29 13:43:00;;;;;;;0.90;0.90;;;20.60;33.60;;;;;;10385285;28;20229;-69
2023/10/29 13:48:06;;;;;;;1.30;1.20;;;20.70;33.30;;;;;;10391986;28;20704;-69
2023/10/29 13:53:10;;;;;;;1.37;1.27;;;20.70;33.50;;;;;;10390870;28;20696;-70
2023/10/29 13:58:14;;;;;;;1.90;0.90;;;20.70;33.60;;;;;;10399962;28;20760;-69
2023/10/29 14:03:17;;;;;;;1.20;1.10;;;20.80;32.80;;;;;;10396269;28;20236;-68
2023/10/29 14:08:21;;;;;;;1.20;1.00;;;20.80;33.00;;;;;;10396635;28;20222;-69
2023/10/29 14:13:26;;;;;;;1.47;1.13;;;20.80;32.60;;;;;;10396259;28;20256;-69
2023/10/29 14:18:30;;;;;;;0.90;0.90;;;20.80;32.30;;;;;;10399361;28;20230;-69
2023/10/29 14:23:34;;;;;;;1.30;1.20;;;20.80;32.70;;;;;;10392777;28;20322;-69
2023/10/29 14:28:39;;;;;;;1.40;1.30;;;20.80;32.90;;;;;;10398942;28;20221;-69
2023/10/29 14:33:43;;;;;;;1.40;1.30;;;20.70;32.60;;;;;;10399844;28;20232;-69
2023/10/29 14:38:46;;;;;;;1.50;1.40;;;20.70;33.10;;;;;;10395509;28;20234;-69
2023/10/29 14:43:51;;;;;;;1.37;1.27;;;20.70;33.10;;;;;;10396965;28;20230;-69
2023/10/29 14:48:54;;;;;;;1.33;1.20;;;20.70;33.00;;;;;;10394710;28;20222;-69
2023/10/29 14:53:58;;;;;;;1.03;1.03;;;20.70;33.10;;;;;;10398279;28;20312;-69
2023/10/29 14:59:03;;;;;;;1.63;1.00;;;20.70;33.00;;;;;;10395084;28;20230;-69
2023/10/29 15:04:07;;;;;;;2.13;1.93;;;20.70;32.90;;;;;;10388812;28;20222;-70
2023/10/29 15:09:10;;;;;;;4.93;1.77;;;20.60;32.90;;;;;;10394157;28;21553;-70
2023/10/29 15:14:16;;;;;;;2.00;1.50;;;20.50;33.00;;;;;;10386272;28;20333;-69
2023/10/29 15:19:19;;;;;;;1.50;1.40;;;20.50;33.00;;;;;;10393876;28;20226;-69
2023/10/29 15:24:38;;;;;;;1.70;1.40;;;20.40;33.20;;;;;;10392791;28;20232;-69
2023/10/29 15:29:42;;;;;;;1.30;1.20;;;20.30;33.20;;;;;;10389196;28;20304;-69
2023/10/29 15:34:46;;;;;;;1.40;1.30;;;20.20;33.10;;;;;;10388858;28;20233;-69
2023/10/29 15:39:49;;;;;;;1.13;1.13;;;20.10;33.30;;;;;;10391710;28;20724;-70
2023/10/29 15:44:54;;;;;;;1.53;1.40;;;20.00;33.30;;;;;;10394761;28;20240;-69
2023/10/29 15:49:57;;;;;;;1.60;1.50;;;20.00;33.40;;;;;;10395198;28;21331;-69
2023/10/29 15:55:01;;;;;;;1.70;1.60;;;19.90;34.30;;;;;;10389468;28;20629;-70
2023/10/29 16:00:08;;;;;;;2.10;1.90;;;19.90;33.70;;;;;;10390046;28;20244;-69
2023/10/29 16:05:12;;;;;;;3.57;2.00;;;19.90;33.80;;;;;;10392870;28;20240;-70
2023/10/29 16:10:15;;;;;;;3.20;2.90;;;19.80;33.60;;;;;;10390489;28;20233;-70
2023/10/29 16:15:19;;;;;;;3.00;2.70;;;19.60;33.40;;;;;;10396056;28;20230;-70
2023/10/29 16:20:22;;;;;;;3.87;3.30;;;19.60;33.60;;;;;;10392704;28;20229;-70
2023/10/29 16:25:25;;;;;;;2.53;2.33;;;19.40;33.50;;;;;;10388800;28;20280;-70
2023/10/29 16:30:30;;;;;;;5.97;4.60;;;19.30;33.60;;;;;;10394716;28;20872;-70
2023/10/29 16:35:33;;;;;;;7.37;6.67;;;19.20;33.90;;;;;;10390352;28;20316;-69
2023/10/29 16:40:37;;;;;;;7.67;6.97;;;19.10;33.90;;;;;;10391614;28;20600;-69
2023/10/29 16:45:42;;;;;;;8.20;7.40;;;19.10;33.90;;;;;;10393070;28;20233;-69
2023/10/29 16:50:47;;;;;;;5.70;5.20;;;19.00;33.90;;;;;;10391224;28;20222;-69
2023/10/29 16:56:07;;;;;;;3.70;3.40;;;18.80;33.70;;;;;;10390003;28;20236;-69
2023/10/29 17:01:13;;;;;;;2.60;2.40;;;18.70;33.90;;;;;;10390446;28;20221;-69
2023/10/29 17:06:16;;;;;;;2.50;2.30;;;18.50;34.30;;;;;;10387714;28;20229;-69
2023/10/29 17:11:21;;;;;;;2.13;2.03;;;18.40;34.40;;;;;;10396025;28;20228;-69
2023/10/29 17:16:26;;;;;;;2.03;1.93;;;18.40;34.70;;;;;;10386935;28;20800;-69
2023/10/29 17:21:29;;;;;;;2.20;2.00;;;18.40;35.00;;;;;;10390854;28;20246;-69
2023/10/29 17:26:33;;;;;;;4.30;2.00;;;18.40;34.80;;;;;;10391749;28;20244;-69
2023/10/29 17:31:37;;;;;;;2.30;2.00;;;18.30;34.90;;;;;;10387472;28;20609;-69
2023/10/29 17:36:40;;;;;;;2.33;1.90;;;18.20;34.90;;;;;;10388320;28;20225;-69
2023/10/29 17:41:44;;;;;;;2.30;2.10;;;18.20;34.90;;;;;;10383258;28;20655;-69
2023/10/29 17:46:48;;;;;;;1.93;1.83;;;18.10;34.80;;;;;;10388179;28;20225;-69
2023/10/29 17:51:51;;;;;;;2.87;2.20;;;18.00;34.70;;;;;;10382961;28;20230;-69
2023/10/29 17:56:54;;;;;;;2.50;2.30;;;18.00;34.70;;;;;;10392184;28;20228;-70
2023/10/29 18:01:59;;;;;;;2.30;2.00;;;17.90;34.70;;;;;;10387906;28;20709;-70
2023/10/29 18:07:02;;;;;;;2.50;2.20;;;17.80;34.60;;;;;;10395057;28;20232;-71
2023/10/29 18:12:07;;;;;;;5.37;4.97;;;17.70;35.20;;;;;;10385613;28;20237;-70
2023/10/29 18:17:11;;;;;;;7.67;7.07;;;17.60;34.40;;;;;;10387479;28;20236;-70
2023/10/29 18:22:14;;;;;;;6.93;6.33;;;17.60;34.90;;;;;;10382482;28;20244;-70
2023/10/29 18:27:18;;;;;;;10.00;8.97;;;17.40;34.80;;;;;;10382098;28;20233;-70
2023/10/29 18:32:22;;;;;;;11.10;9.77;;;17.40;35.00;;;;;;10386962;28;20230;-70
2023/10/29 18:37:25;;;;;;;4.40;4.00;;;17.30;35.20;;;;;;10388970;28;20249;-70
2023/10/29 18:42:28;;;;;;;3.07;2.80;;;17.20;35.20;;;;;;10389018;28;21127;-70
2023/10/29 18:47:33;;;;;;;2.47;2.27;;;17.10;35.20;;;;;;10397321;28;20229;-70
2023/10/29 18:52:38;;;;;;;2.77;2.57;;;17.00;35.80;;;;;;10394150;28;20222;-70
2023/10/29 18:57:41;;;;;;;4.90;4.50;;;16.90;35.60;;;;;;10398145;28;20225;-70
2023/10/29 19:02:46;;;;;;;6.37;5.40;;;16.80;35.60;;;;;;10397706;28;20825;-70
2023/10/29 19:07:49;;;;;;;6.40;4.80;;;16.60;36.00;;;;;;10400433;28;20305;-70
2023/10/29 19:12:52;;;;;;;4.87;4.47;;;16.50;35.80;;;;;;10397306;28;20224;-70
2023/10/29 19:17:57;;;;;;;8.40;7.03;;;16.40;36.00;;;;;;10396189;28;20222;-70
2023/10/29 19:23:01;;;;;;;5.50;5.00;;;16.30;36.40;;;;;;10391493;28;20360;-70
2023/10/29 19:28:04;;;;;;;4.77;4.37;;;16.30;36.20;;;;;;10393764;28;20909;-71
2023/10/29 19:33:09;;;;;;;4.20;3.80;;;16.10;36.40;;;;;;10394065;28;20241;-71
2023/10/29 19:38:12;;;;;;;4.57;4.17;;;16.00;36.90;;;;;;10388145;28;20230;-70
2023/10/29 19:43:15;;;;;;;4.33;3.93;;;15.90;36.90;;;;;;10383106;28;20234;-70
2023/10/29 19:48:20;;;;;;;3.80;3.50;;;15.90;37.10;;;;;;10390186;28;20236;-70
2023/10/29 19:53:24;;;;;;;5.10;4.17;;;16.00;37.50;;;;;;10394174;28;20265;-70
2023/10/29 19:58:27;;;;;;;5.10;4.60;;;16.00;37.20;;;;;;10390911;28;20225;-70
2023/10/29 20:03:32;;;;;;;5.37;4.87;;;16.00;37.30;;;;;;10387292;28;20226;-70
2023/10/29 20:08:37;;;;;;;6.37;5.03;;;15.90;37.70;;;;;;10397825;28;20280;-70
2023/10/29 20:13:42;;;;;;;6.87;6.27;;;15.90;37.40;;;;;;10390606;28;20740;-70
2023/10/29 20:18:48;;;;;;;6.80;6.20;;;15.90;37.90;;;;;;10394381;28;20423;-70
2023/10/29 20:23:51;;;;;;;5.40;4.90;;;15.90;38.10;;;;;;10390763;28;20572;-70
2023/10/29 20:28:54;;;;;;;5.63;5.00;;;15.90;37.70;;;;;;10395403;28;20679;-70
2023/10/29 20:33:59;;;;;;;5.50;4.90;;;15.90;37.80;;;;;;10391105;28;20243;-70
2023/10/29 20:39:03;;;;;;;4.33;4.03;;;15.90;38.20;;;;;;10390601;28;20221;-71
2023/10/29 20:44:09;;;;;;;5.40;3.47;;;15.80;37.80;;;;;;10393171;28;21006;-71
2023/10/29 20:49:15;;;;;;;4.83;4.40;;;15.70;37.80;;;;;;10393876;28;20238;-70
2023/10/29 20:54:18;;;;;;;5.43;4.93;;;15.70;38.60;;;;;;10392742;28;20257;-70
2023/10/29 20:59:24;;;;;;;6.50;4.90;;;15.60;38.20;;;;;;10396786;28;20824;-70
2023/10/29 21:04:29;;;;;;;6.87;5.47;;;15.70;38.30;;;;;;10393102;28;20261;-70
2023/10/29 21:09:32;;;;;;;5.53;5.03;;;15.70;38.70;;;;;;10385745;28;20228;-70
2023/10/29 21:14:35;;;;;;;5.60;4.97;;;15.70;38.30;;;;;;10388907;28;20230;-70
2023/10/29 21:19:40;;;;;;;5.10;4.70;;;15.70;38.40;;;;;;10390530;28;20332;-70
2023/10/29 21:24:43;;;;;;;5.40;4.87;;;15.80;38.80;;;;;;10393127;28;20233;-70
2023/10/29 21:29:46;;;;;;;6.97;4.60;;;15.80;38.40;;;;;;10385538;28;21029;-70
2023/10/29 21:34:52;;;;;;;4.90;4.40;;;15.70;38.30;;;;;;10386070;28;20233;-70
2023/10/29 21:39:55;;;;;;;5.03;4.43;;;15.60;38.90;;;;;;10389723;28;20218;-70
2023/10/29 21:44:58;;;;;;;5.43;4.93;;;15.50;38.60;;;;;;10388867;28;20221;-70
2023/10/29 21:50:02;;;;;;;3.97;3.67;;;15.50;38.70;;;;;;10387835;28;20235;-70
2023/10/29 21:55:06;;;;;;;3.90;3.50;;;15.50;39.00;;;;;;10391574;28;20251;-70
2023/10/29 22:00:10;;;;;;;4.80;3.40;;;15.50;38.80;;;;;;10390625;28;20233;-70
2023/10/29 22:05:15;;;;;;;3.83;3.27;;;15.40;38.70;;;;;;10386384;28;20712;-69
2023/10/29 22:10:18;;;;;;;3.57;3.27;;;15.40;39.00;;;;;;10391533;28;20328;-69
2023/10/29 22:15:21;;;;;;;3.90;3.50;;;15.40;38.90;;;;;;10383755;28;20283;-69
2023/10/29 22:20:29;;;;;;;3.70;3.30;;;15.40;39.00;;;;;;10402854;28;20252;-69
2023/10/29 22:25:32;;;;;;;3.77;3.40;;;15.40;39.30;;;;;;10397572;28;20222;-69
2023/10/29 22:30:35;;;;;;;4.70;4.27;;;15.30;38.70;;;;;;10390000;28;20730;-69
2023/10/29 22:35:41;;;;;;;5.00;4.60;;;15.20;39.10;;;;;;10401817;28;20288;-69
2023/10/29 22:40:44;;;;;;;6.20;5.40;;;15.20;39.40;;;;;;10395233;28;20226;-69
2023/10/29 22:45:47;;;;;;;5.70;5.20;;;15.10;39.00;;;;;;10389491;28;20622;-69
2023/10/29 22:50:52;;;;;;;4.70;4.30;;;15.00;39.10;;;;;;10389302;28;20818;-69
2023/10/29 22:55:58;;;;;;;5.30;4.37;;;15.00;39.60;;;;;;10394325;28;20720;-69
2023/10/29 23:01:03;;;;;;;4.30;4.00;;;14.90;39.80;;;;;;10398849;28;20225;-71
2023/10/29 23:06:08;;;;;;;4.30;3.90;;;14.90;39.10;;;;;;10393954;28;20310;-69
2023/10/29 23:11:15;;;;;;;3.67;3.37;;;14.90;39.30;;;;;;10391472;28;20237;-69
2023/10/29 23:16:18;;;;;;;3.97;3.57;;;14.80;40.10;;;;;;10390882;28;20229;-69
2023/10/29 23:21:23;;;;;;;3.70;3.40;;;14.80;39.10;;;;;;10393625;28;20276;-69
2023/10/29 23:26:26;;;;;;;3.80;3.50;;;14.70;39.30;;;;;;10390911;28;21531;-69
2023/10/29 23:31:29;;;;;;;3.70;3.40;;;14.70;39.00;;;;;;10397547;28;20236;-69
2023/10/29 23:36:34;;;;;;;4.10;3.80;;;14.70;39.10;;;;;;10399297;28;20312;-69
2023/10/29 23:41:37;;;;;;;4.50;4.10;;;14.70;39.40;;;;;;10394960;28;20236;-69
2023/10/29 23:46:40;;;;;;;3.93;3.50;;;14.60;39.20;;;;;;10398131;28;20229;-69
2023/10/29 23:51:45;;;;;;;4.37;3.73;;;14.60;39.30;;;;;;10390196;28;20226;-69
2023/10/29 23:56:48;;;;;;;5.27;4.07;;;14.60;39.60;;;;;;10390964;28;20263;-69
